sensor_id;sensor_type;location;lat;lon;timestamp;P1;durP1;ratioP1;P2;durP2;ratioP2
13764;SDS011;6953;48.810;9.204;2023-09-19T00:01:14;0.20;;;0.20;;
13764;SDS011;6953;48.810;9.204;2023-09-19T00:03:40;0.20;;;0.20;;
13764;SDS011;6953;48.810;9.204;2023-09-19T00:06:07;0.20;;;0.20;;
13764;SDS011;6953;48.810;9.204;2023-09-19T00:08:33;0.20;;;0.20;;
13764;SDS011;6953;48.810;9.204;2023-09-19T00:10:59;0.20;;;0.20;;
13764;SDS011;6953;48.810;9.204;2023-09-19T00:13:31;0.20;;;0.20;;
13764;SDS011;6953;48.810;9.204;2023-09-19T00:16:01;0.20;;;0.20;;
13764;SDS011;6953;48.810;9.204;2023-09-19T00:18:33;0.17;;;0.17;;
13764;SDS011;6953;48.810;9.204;2023-09-19T00:20:59;0.10;;;0.10;;
13764;SDS011;6953;48.810;9.204;2023-09-19T00:23:25;0.10;;;0.10;;
13764;SDS011;6953;48.810;9.204;2023-09-19T00:25:50;0.20;;;0.20;;
13764;SDS011;6953;48.810;9.204;2023-09-19T00:28:16;0.20;;;0.20;;
13764;SDS011;6953;48.810;9.204;2023-09-19T00:30:43;0.20;;;0.20;;
13764;SDS011;6953;48.810;9.204;2023-09-19T00:33:09;0.20;;;0.20;;
13764;SDS011;6953;48.810;9.204;2023-09-19T00:35:36;0.20;;;0.20;;
13764;SDS011;6953;48.810;9.204;2023-09-19T00:38:02;0.15;;;0.15;;
13764;SDS011;6953;48.810;9.204;2023-09-19T00:40:28;0.20;;;0.20;;
13764;SDS011;6953;48.810;9.204;2023-09-19T00:42:56;0.15;;;0.15;;
13764;SDS011;6953;48.810;9.204;2023-09-19T00:45:25;0.20;;;0.20;;
13764;SDS011;6953;48.810;9.204;2023-09-19T00:47:50;0.20;;;0.20;;
13764;SDS011;6953;48.810;9.204;2023-09-19T00:50:20;0.20;;;0.20;;
13764;SDS011;6953;48.810;9.204;2023-09-19T00:52:50;0.20;;;0.20;;
13764;SDS011;6953;48.810;9.204;2023-09-19T00:55:22;0.20;;;0.20;;
13764;SDS011;6953;48.810;9.204;2023-09-19T00:57:49;0.20;;;0.20;;
13764;SDS011;6953;48.810;9.204;2023-09-19T01:00:15;0.20;;;0.20;;
13764;SDS011;6953;48.810;9.204;2023-09-19T01:02:41;0.20;;;0.20;;
13764;SDS011;6953;48.810;9.204;2023-09-19T01:05:10;0.20;;;0.20;;
13764;SDS011;6953;48.810;9.204;2023-09-19T01:07:37;0.20;;;0.20;;
13764;SDS011;6953;48.810;9.204;2023-09-19T01:10:06;0.20;;;0.20;;
13764;SDS011;6953;48.810;9.204;2023-09-19T01:15:25;0.20;;;0.20;;
13764;SDS011;6953;48.810;9.204;2023-09-19T01:20:53;0.20;;;0.20;;
13764;SDS011;6953;48.810;9.204;2023-09-19T01:31:54;0.20;;;0.20;;
13764;SDS011;6953;48.810;9.204;2023-09-19T01:34:24;0.20;;;0.20;;
13764;SDS011;6953;48.810;9.204;2023-09-19T01:36:51;0.20;;;0.20;;
13764;SDS011;6953;48.810;9.204;2023-09-19T01:39:16;0.20;;;0.20;;
13764;SDS011;6953;48.810;9.204;2023-09-19T01:44:17;0.20;;;0.20;;
13764;SDS011;6953;48.810;9.204;2023-09-19T01:46:50;0.20;;;0.20;;
13764;SDS011;6953;48.810;9.204;2023-09-19T01:49:29;0.20;;;0.20;;
13764;SDS011;6953;48.810;9.204;2023-09-19T01:52:09;0.20;;;0.20;;
13764;SDS011;6953;48.810;9.204;2023-09-19T01:54:43;0.20;;;0.20;;
13764;SDS011;6953;48.810;9.204;2023-09-19T01:58:15;0.20;;;0.20;;
13764;SDS011;6953;48.810;9.204;2023-09-19T02:00:19;0.20;;;0.20;;
13764;SDS011;6953;48.810;9.204;2023-09-19T02:02:48;0.20;;;0.20;;
13764;SDS011;6953;48.810;9.204;2023-09-19T02:05:21;0.20;;;0.20;;
13764;SDS011;6953;48.810;9.204;2023-09-19T02:07:49;0.20;;;0.20;;
13764;SDS011;6953;48.810;9.204;2023-09-19T02:10:15;0.20;;;0.20;;
13764;SDS011;6953;48.810;9.204;2023-09-19T02:12:42;0.20;;;0.20;;
13764;SDS011;6953;48.810;9.204;2023-09-19T02:15:07;0.20;;;0.20;;
13764;SDS011;6953;48.810;9.204;2023-09-19T02:17:34;0.20;;;0.20;;
13764;SDS011;6953;48.810;9.204;2023-09-19T02:19:59;0.20;;;0.20;;
13764;SDS011;6953;48.810;9.204;2023-09-19T02:22:25;0.20;;;0.20;;
13764;SDS011;6953;48.810;9.204;2023-09-19T02:24:51;0.20;;;0.20;;
13764;SDS011;6953;48.810;9.204;2023-09-19T02:27:17;0.20;;;0.20;;
13764;SDS011;6953;48.810;9.204;2023-09-19T02:29:43;0.20;;;0.20;;
13764;SDS011;6953;48.810;9.204;2023-09-19T02:32:08;0.20;;;0.20;;
13764;SDS011;6953;48.810;9.204;2023-09-19T02:34:37;0.20;;;0.20;;
13764;SDS011;6953;48.810;9.204;2023-09-19T02:37:04;0.20;;;0.20;;
13764;SDS011;6953;48.810;9.204;2023-09-19T02:39:33;0.22;;;0.22;;
13764;SDS011;6953;48.810;9.204;2023-09-19T02:41:59;0.20;;;0.20;;
13764;SDS011;6953;48.810;9.204;2023-09-19T02:44:24;0.20;;;0.20;;
13764;SDS011;6953;48.810;9.204;2023-09-19T02:46:50;0.20;;;0.20;;
13764;SDS011;6953;48.810;9.204;2023-09-19T02:49:15;0.20;;;0.20;;
13764;SDS011;6953;48.810;9.204;2023-09-19T02:51:42;0.30;;;0.30;;
13764;SDS011;6953;48.810;9.204;2023-09-19T02:54:08;0.20;;;0.20;;
13764;SDS011;6953;48.810;9.204;2023-09-19T02:56:33;0.20;;;0.20;;
13764;SDS011;6953;48.810;9.204;2023-09-19T02:59:00;0.20;;;0.20;;
13764;SDS011;6953;48.810;9.204;2023-09-19T03:01:26;0.20;;;0.20;;
13764;SDS011;6953;48.810;9.204;2023-09-19T03:03:53;0.20;;;0.20;;
13764;SDS011;6953;48.810;9.204;2023-09-19T03:06:18;0.20;;;0.20;;
13764;SDS011;6953;48.810;9.204;2023-09-19T03:08:45;0.20;;;0.20;;
13764;SDS011;6953;48.810;9.204;2023-09-19T03:11:13;0.20;;;0.20;;
13764;SDS011;6953;48.810;9.204;2023-09-19T03:13:41;0.20;;;0.20;;
13764;SDS011;6953;48.810;9.204;2023-09-19T03:16:07;0.20;;;0.20;;
13764;SDS011;6953;48.810;9.204;2023-09-19T03:18:35;0.20;;;0.20;;
13764;SDS011;6953;48.810;9.204;2023-09-19T03:21:01;0.20;;;0.20;;
13764;SDS011;6953;48.810;9.204;2023-09-19T03:23:27;0.20;;;0.20;;
13764;SDS011;6953;48.810;9.204;2023-09-19T03:25:53;0.20;;;0.20;;
13764;SDS011;6953;48.810;9.204;2023-09-19T03:28:19;0.20;;;0.20;;
13764;SDS011;6953;48.810;9.204;2023-09-19T03:30:45;0.20;;;0.20;;
13764;SDS011;6953;48.810;9.204;2023-09-19T03:33:11;0.20;;;0.20;;
13764;SDS011;6953;48.810;9.204;2023-09-19T03:35:37;0.20;;;0.20;;
13764;SDS011;6953;48.810;9.204;2023-09-19T03:38:04;0.10;;;0.10;;
13764;SDS011;6953;48.810;9.204;2023-09-19T03:40:29;0.20;;;0.20;;
13764;SDS011;6953;48.810;9.204;2023-09-19T03:42:55;0.20;;;0.20;;
13764;SDS011;6953;48.810;9.204;2023-09-19T03:45:20;0.20;;;0.20;;
13764;SDS011;6953;48.810;9.204;2023-09-19T03:47:46;0.20;;;0.20;;
13764;SDS011;6953;48.810;9.204;2023-09-19T03:50:12;0.20;;;0.20;;
13764;SDS011;6953;48.810;9.204;2023-09-19T03:52:42;0.20;;;0.20;;
13764;SDS011;6953;48.810;9.204;2023-09-19T03:55:08;0.20;;;0.20;;
13764;SDS011;6953;48.810;9.204;2023-09-19T03:57:34;0.10;;;0.10;;
13764;SDS011;6953;48.810;9.204;2023-09-19T04:00:00;0.20;;;0.20;;
13764;SDS011;6953;48.810;9.204;2023-09-19T04:02:26;0.20;;;0.20;;
13764;SDS011;6953;48.810;9.204;2023-09-19T04:04:57;0.20;;;0.20;;
13764;SDS011;6953;48.810;9.204;2023-09-19T04:07:23;0.20;;;0.20;;
13764;SDS011;6953;48.810;9.204;2023-09-19T04:09:50;0.20;;;0.20;;
13764;SDS011;6953;48.810;9.204;2023-09-19T04:12:18;0.20;;;0.20;;
13764;SDS011;6953;48.810;9.204;2023-09-19T04:14:43;0.20;;;0.20;;
13764;SDS011;6953;48.810;9.204;2023-09-19T04:17:09;0.20;;;0.20;;
13764;SDS011;6953;48.810;9.204;2023-09-19T04:19:35;0.20;;;0.20;;
13764;SDS011;6953;48.810;9.204;2023-09-19T04:22:00;0.20;;;0.20;;
13764;SDS011;6953;48.810;9.204;2023-09-19T04:24:26;0.30;;;0.30;;
13764;SDS011;6953;48.810;9.204;2023-09-19T04:26:51;0.28;;;0.28;;
13764;SDS011;6953;48.810;9.204;2023-09-19T04:29:17;0.20;;;0.20;;
13764;SDS011;6953;48.810;9.204;2023-09-19T04:31:44;0.20;;;0.20;;
13764;SDS011;6953;48.810;9.204;2023-09-19T04:34:11;0.20;;;0.20;;
13764;SDS011;6953;48.810;9.204;2023-09-19T04:36:42;0.20;;;0.20;;
13764;SDS011;6953;48.810;9.204;2023-09-19T04:39:08;0.20;;;0.20;;
13764;SDS011;6953;48.810;9.204;2023-09-19T04:41:35;0.28;;;0.28;;
13764;SDS011;6953;48.810;9.204;2023-09-19T04:44:03;0.20;;;0.20;;
13764;SDS011;6953;48.810;9.204;2023-09-19T04:46:29;0.20;;;0.20;;
13764;SDS011;6953;48.810;9.204;2023-09-19T04:48:55;0.20;;;0.20;;
13764;SDS011;6953;48.810;9.204;2023-09-19T04:51:20;0.20;;;0.20;;
13764;SDS011;6953;48.810;9.204;2023-09-19T04:53:45;0.20;;;0.20;;
13764;SDS011;6953;48.810;9.204;2023-09-19T04:56:11;0.30;;;0.30;;
13764;SDS011;6953;48.810;9.204;2023-09-19T04:58:36;0.10;;;0.10;;
13764;SDS011;6953;48.810;9.204;2023-09-19T05:01:01;0.20;;;0.20;;
13764;SDS011;6953;48.810;9.204;2023-09-19T05:03:27;0.30;;;0.30;;
13764;SDS011;6953;48.810;9.204;2023-09-19T05:05:53;0.20;;;0.20;;
13764;SDS011;6953;48.810;9.204;2023-09-19T05:08:18;0.20;;;0.20;;
13764;SDS011;6953;48.810;9.204;2023-09-19T05:10:43;0.20;;;0.20;;
13764;SDS011;6953;48.810;9.204;2023-09-19T05:13:08;0.20;;;0.20;;
13764;SDS011;6953;48.810;9.204;2023-09-19T05:15:34;0.20;;;0.20;;
13764;SDS011;6953;48.810;9.204;2023-09-19T05:18:00;0.20;;;0.20;;
13764;SDS011;6953;48.810;9.204;2023-09-19T05:20:26;0.28;;;0.28;;
13764;SDS011;6953;48.810;9.204;2023-09-19T05:23:00;0.22;;;0.22;;
13764;SDS011;6953;48.810;9.204;2023-09-19T05:25:28;0.20;;;0.20;;
13764;SDS011;6953;48.810;9.204;2023-09-19T05:27:55;0.25;;;0.25;;
13764;SDS011;6953;48.810;9.204;2023-09-19T05:30:22;0.20;;;0.20;;
13764;SDS011;6953;48.810;9.204;2023-09-19T05:32:48;0.20;;;0.20;;
13764;SDS011;6953;48.810;9.204;2023-09-19T05:35:13;0.20;;;0.20;;
13764;SDS011;6953;48.810;9.204;2023-09-19T05:37:38;0.20;;;0.20;;
13764;SDS011;6953;48.810;9.204;2023-09-19T05:40:04;0.20;;;0.20;;
13764;SDS011;6953;48.810;9.204;2023-09-19T05:42:37;0.20;;;0.20;;
13764;SDS011;6953;48.810;9.204;2023-09-19T05:45:04;0.20;;;0.20;;
13764;SDS011;6953;48.810;9.204;2023-09-19T05:47:31;0.30;;;0.30;;
13764;SDS011;6953;48.810;9.204;2023-09-19T05:49:56;0.20;;;0.20;;
13764;SDS011;6953;48.810;9.204;2023-09-19T05:52:22;0.20;;;0.20;;
13764;SDS011;6953;48.810;9.204;2023-09-19T05:54:47;0.30;;;0.30;;
13764;SDS011;6953;48.810;9.204;2023-09-19T05:57:12;0.30;;;0.30;;
13764;SDS011;6953;48.810;9.204;2023-09-19T05:59:38;0.20;;;0.20;;
13764;SDS011;6953;48.810;9.204;2023-09-19T06:02:05;0.20;;;0.20;;
13764;SDS011;6953;48.810;9.204;2023-09-19T06:04:31;0.20;;;0.20;;
13764;SDS011;6953;48.810;9.204;2023-09-19T06:06:56;0.25;;;0.25;;
13764;SDS011;6953;48.810;9.204;2023-09-19T06:09:22;0.20;;;0.20;;
13764;SDS011;6953;48.810;9.204;2023-09-19T06:11:48;0.20;;;0.20;;
13764;SDS011;6953;48.810;9.204;2023-09-19T06:14:13;0.25;;;0.25;;
13764;SDS011;6953;48.810;9.204;2023-09-19T06:16:39;0.20;;;0.20;;
13764;SDS011;6953;48.810;9.204;2023-09-19T06:19:06;0.30;;;0.30;;
13764;SDS011;6953;48.810;9.204;2023-09-19T06:21:35;0.30;;;0.30;;
13764;SDS011;6953;48.810;9.204;2023-09-19T06:24:01;0.20;;;0.20;;
13764;SDS011;6953;48.810;9.204;2023-09-19T06:26:26;0.20;;;0.20;;
13764;SDS011;6953;48.810;9.204;2023-09-19T06:28:52;0.30;;;0.30;;
13764;SDS011;6953;48.810;9.204;2023-09-19T06:31:17;0.30;;;0.30;;
13764;SDS011;6953;48.810;9.204;2023-09-19T06:33:43;0.20;;;0.20;;
13764;SDS011;6953;48.810;9.204;2023-09-19T06:36:08;0.20;;;0.20;;
13764;SDS011;6953;48.810;9.204;2023-09-19T06:38:34;0.20;;;0.20;;
13764;SDS011;6953;48.810;9.204;2023-09-19T06:41:01;0.20;;;0.20;;
13764;SDS011;6953;48.810;9.204;2023-09-19T06:43:30;0.30;;;0.30;;
13764;SDS011;6953;48.810;9.204;2023-09-19T06:45:59;0.20;;;0.20;;
13764;SDS011;6953;48.810;9.204;2023-09-19T06:48:25;0.20;;;0.20;;
13764;SDS011;6953;48.810;9.204;2023-09-19T06:50:52;0.20;;;0.20;;
13764;SDS011;6953;48.810;9.204;2023-09-19T06:53:20;0.30;;;0.30;;
13764;SDS011;6953;48.810;9.204;2023-09-19T06:55:45;0.20;;;0.20;;
13764;SDS011;6953;48.810;9.204;2023-09-19T06:58:10;0.30;;;0.30;;
13764;SDS011;6953;48.810;9.204;2023-09-19T07:00:36;0.20;;;0.20;;
13764;SDS011;6953;48.810;9.204;2023-09-19T07:03:03;0.20;;;0.20;;
13764;SDS011;6953;48.810;9.204;2023-09-19T07:05:33;0.20;;;0.20;;
13764;SDS011;6953;48.810;9.204;2023-09-19T07:08:02;0.20;;;0.20;;
13764;SDS011;6953;48.810;9.204;2023-09-19T07:10:28;0.20;;;0.20;;
13764;SDS011;6953;48.810;9.204;2023-09-19T07:12:55;0.20;;;0.20;;
13764;SDS011;6953;48.810;9.204;2023-09-19T07:15:24;0.20;;;0.20;;
13764;SDS011;6953;48.810;9.204;2023-09-19T07:17:51;0.20;;;0.20;;
13764;SDS011;6953;48.810;9.204;2023-09-19T07:20:18;0.20;;;0.20;;
13764;SDS011;6953;48.810;9.204;2023-09-19T07:22:43;0.17;;;0.17;;
13764;SDS011;6953;48.810;9.204;2023-09-19T07:25:09;0.10;;;0.10;;
13764;SDS011;6953;48.810;9.204;2023-09-19T07:27:34;0.10;;;0.10;;
13764;SDS011;6953;48.810;9.204;2023-09-19T07:29:59;0.10;;;0.10;;
13764;SDS011;6953;48.810;9.204;2023-09-19T07:32:25;0.20;;;0.20;;
13764;SDS011;6953;48.810;9.204;2023-09-19T07:34:50;0.10;;;0.10;;
13764;SDS011;6953;48.810;9.204;2023-09-19T07:37:15;0.20;;;0.20;;
13764;SDS011;6953;48.810;9.204;2023-09-19T07:39:41;0.10;;;0.10;;
13764;SDS011;6953;48.810;9.204;2023-09-19T07:42:06;0.20;;;0.20;;
13764;SDS011;6953;48.810;9.204;2023-09-19T07:44:32;0.10;;;0.10;;
13764;SDS011;6953;48.810;9.204;2023-09-19T07:46:57;0.40;;;0.40;;
13764;SDS011;6953;48.810;9.204;2023-09-19T07:49:22;0.30;;;0.30;;
13764;SDS011;6953;48.810;9.204;2023-09-19T07:51:48;0.30;;;0.30;;
13764;SDS011;6953;48.810;9.204;2023-09-19T07:54:13;0.30;;;0.30;;
13764;SDS011;6953;48.810;9.204;2023-09-19T07:56:39;0.35;;;0.35;;
13764;SDS011;6953;48.810;9.204;2023-09-19T07:59:05;0.35;;;0.35;;
13764;SDS011;6953;48.810;9.204;2023-09-19T08:01:30;0.30;;;0.30;;
13764;SDS011;6953;48.810;9.204;2023-09-19T08:03:56;0.30;;;0.30;;
13764;SDS011;6953;48.810;9.204;2023-09-19T08:06:21;0.30;;;0.30;;
13764;SDS011;6953;48.810;9.204;2023-09-19T08:08:47;0.30;;;0.30;;
13764;SDS011;6953;48.810;9.204;2023-09-19T08:11:16;0.25;;;0.25;;
13764;SDS011;6953;48.810;9.204;2023-09-19T08:13:46;0.25;;;0.25;;
13764;SDS011;6953;48.810;9.204;2023-09-19T08:16:13;0.20;;;0.20;;
13764;SDS011;6953;48.810;9.204;2023-09-19T08:18:40;0.30;;;0.30;;
13764;SDS011;6953;48.810;9.204;2023-09-19T08:21:05;0.20;;;0.20;;
13764;SDS011;6953;48.810;9.204;2023-09-19T08:23:35;0.20;;;0.20;;
13764;SDS011;6953;48.810;9.204;2023-09-19T08:26:04;0.20;;;0.20;;
13764;SDS011;6953;48.810;9.204;2023-09-19T08:28:33;0.13;;;0.13;;
13764;SDS011;6953;48.810;9.204;2023-09-19T08:31:02;0.20;;;0.20;;
13764;SDS011;6953;48.810;9.204;2023-09-19T08:33:29;0.20;;;0.20;;
13764;SDS011;6953;48.810;9.204;2023-09-19T08:35:56;0.20;;;0.20;;
13764;SDS011;6953;48.810;9.204;2023-09-19T08:38:21;0.20;;;0.20;;
13764;SDS011;6953;48.810;9.204;2023-09-19T08:40:47;0.20;;;0.20;;
13764;SDS011;6953;48.810;9.204;2023-09-19T08:43:12;0.20;;;0.20;;
13764;SDS011;6953;48.810;9.204;2023-09-19T08:45:37;0.20;;;0.20;;
13764;SDS011;6953;48.810;9.204;2023-09-19T08:50:55;0.20;;;0.20;;
13764;SDS011;6953;48.810;9.204;2023-09-19T08:53:28;0.20;;;0.20;;
13764;SDS011;6953;48.810;9.204;2023-09-19T08:55:59;0.20;;;0.20;;
13764;SDS011;6953;48.810;9.204;2023-09-19T08:58:27;0.20;;;0.20;;
13764;SDS011;6953;48.810;9.204;2023-09-19T09:01:00;0.20;;;0.20;;
13764;SDS011;6953;48.810;9.204;2023-09-19T09:03:26;0.20;;;0.20;;
13764;SDS011;6953;48.810;9.204;2023-09-19T09:05:57;0.10;;;0.10;;
13764;SDS011;6953;48.810;9.204;2023-09-19T09:08:23;0.10;;;0.10;;
13764;SDS011;6953;48.810;9.204;2023-09-19T09:10:49;0.10;;;0.10;;
13764;SDS011;6953;48.810;9.204;2023-09-19T09:13:16;0.05;;;0.05;;
13764;SDS011;6953;48.810;9.204;2023-09-19T09:15:41;0.10;;;0.10;;
13764;SDS011;6953;48.810;9.204;2023-09-19T09:18:09;0.10;;;0.10;;
13764;SDS011;6953;48.810;9.204;2023-09-19T09:20:35;0.00;;;0.00;;
13764;SDS011;6953;48.810;9.204;2023-09-19T09:23:01;0.10;;;0.10;;
13764;SDS011;6953;48.810;9.204;2023-09-19T09:25:47;0.10;;;0.10;;
13764;SDS011;6953;48.810;9.204;2023-09-19T09:28:20;0.10;;;0.10;;
13764;SDS011;6953;48.810;9.204;2023-09-19T09:30:46;0.10;;;0.10;;
13764;SDS011;6953;48.810;9.204;2023-09-19T09:33:12;0.00;;;0.00;;
13764;SDS011;6953;48.810;9.204;2023-09-19T09:35:57;0.10;;;0.10;;
13764;SDS011;6953;48.810;9.204;2023-09-19T09:38:28;0.00;;;0.00;;
13764;SDS011;6953;48.810;9.204;2023-09-19T09:40:58;0.10;;;0.10;;
13764;SDS011;6953;48.810;9.204;2023-09-19T09:46:10;0.00;;;0.00;;
13764;SDS011;6953;48.810;9.204;2023-09-19T09:48:45;0.10;;;0.10;;
13764;SDS011;6953;48.810;9.204;2023-09-19T09:51:32;0.00;;;0.00;;
13764;SDS011;6953;48.810;9.204;2023-09-19T09:54:14;0.10;;;0.10;;
13764;SDS011;6953;48.810;9.204;2023-09-19T09:56:58;0.00;;;0.00;;
13764;SDS011;6953;48.810;9.204;2023-09-19T10:02:14;0.10;;;0.10;;
13764;SDS011;6953;48.810;9.204;2023-09-19T10:04:49;0.10;;;0.10;;
13764;SDS011;6953;48.810;9.204;2023-09-19T10:07:27;0.20;;;0.20;;
13764;SDS011;6953;48.810;9.204;2023-09-19T10:09:57;0.20;;;0.20;;
13764;SDS011;6953;48.810;9.204;2023-09-19T10:12:30;0.10;;;0.10;;
13764;SDS011;6953;48.810;9.204;2023-09-19T10:14:56;0.10;;;0.10;;
13764;SDS011;6953;48.810;9.204;2023-09-19T10:17:24;0.20;;;0.20;;
13764;SDS011;6953;48.810;9.204;2023-09-19T10:19:54;0.20;;;0.20;;
13764;SDS011;6953;48.810;9.204;2023-09-19T10:22:24;0.20;;;0.20;;
13764;SDS011;6953;48.810;9.204;2023-09-19T10:24:52;0.10;;;0.10;;
13764;SDS011;6953;48.810;9.204;2023-09-19T10:27:21;0.20;;;0.20;;
13764;SDS011;6953;48.810;9.204;2023-09-19T10:29:48;0.20;;;0.20;;
13764;SDS011;6953;48.810;9.204;2023-09-19T10:32:16;0.20;;;0.20;;
13764;SDS011;6953;48.810;9.204;2023-09-19T10:34:45;0.10;;;0.10;;
13764;SDS011;6953;48.810;9.204;2023-09-19T10:37:12;0.10;;;0.10;;
13764;SDS011;6953;48.810;9.204;2023-09-19T10:39:38;0.10;;;0.10;;
13764;SDS011;6953;48.810;9.204;2023-09-19T10:42:05;0.17;;;0.17;;
13764;SDS011;6953;48.810;9.204;2023-09-19T10:44:34;0.10;;;0.10;;
13764;SDS011;6953;48.810;9.204;2023-09-19T10:47:07;0.10;;;0.10;;
13764;SDS011;6953;48.810;9.204;2023-09-19T10:49:33;0.10;;;0.10;;
13764;SDS011;6953;48.810;9.204;2023-09-19T10:51:59;0.10;;;0.10;;
13764;SDS011;6953;48.810;9.204;2023-09-19T10:54:31;0.08;;;0.08;;
13764;SDS011;6953;48.810;9.204;2023-09-19T10:57:02;0.10;;;0.10;;
13764;SDS011;6953;48.810;9.204;2023-09-19T10:59:30;0.10;;;0.10;;
13764;SDS011;6953;48.810;9.204;2023-09-19T11:01:59;0.10;;;0.10;;
13764;SDS011;6953;48.810;9.204;2023-09-19T11:04:40;0.10;;;0.10;;
13764;SDS011;6953;48.810;9.204;2023-09-19T11:07:09;0.10;;;0.10;;
13764;SDS011;6953;48.810;9.204;2023-09-19T11:09:46;0.10;;;0.10;;
13764;SDS011;6953;48.810;9.204;2023-09-19T11:14:56;0.10;;;0.10;;
13764;SDS011;6953;48.810;9.204;2023-09-19T11:17:37;0.10;;;0.10;;
13764;SDS011;6953;48.810;9.204;2023-09-19T11:25:41;0.10;;;0.10;;
13764;SDS011;6953;48.810;9.204;2023-09-19T11:30:42;0.10;;;0.10;;
13764;SDS011;6953;48.810;9.204;2023-09-19T11:33:22;0.10;;;0.10;;
13764;SDS011;6953;48.810;9.204;2023-09-19T11:36:09;0.10;;;0.10;;
13764;SDS011;6953;48.810;9.204;2023-09-19T11:43:49;0.10;;;0.10;;
13764;SDS011;6953;48.810;9.204;2023-09-19T11:46:25;0.10;;;0.10;;
13764;SDS011;6953;48.810;9.204;2023-09-19T11:48:51;0.10;;;0.10;;
13764;SDS011;6953;48.810;9.204;2023-09-19T11:53:48;0.10;;;0.10;;
13764;SDS011;6953;48.810;9.204;2023-09-19T11:56:17;0.10;;;0.10;;
13764;SDS011;6953;48.810;9.204;2023-09-19T11:58:45;0.10;;;0.10;;
13764;SDS011;6953;48.810;9.204;2023-09-19T12:01:14;0.10;;;0.10;;
13764;SDS011;6953;48.810;9.204;2023-09-19T12:03:45;0.10;;;0.10;;
13764;SDS011;6953;48.810;9.204;2023-09-19T12:06:13;0.10;;;0.10;;
13764;SDS011;6953;48.810;9.204;2023-09-19T12:08:40;0.10;;;0.10;;
13764;SDS011;6953;48.810;9.204;2023-09-19T12:11:11;0.10;;;0.10;;
13764;SDS011;6953;48.810;9.204;2023-09-19T12:13:41;0.10;;;0.10;;
13764;SDS011;6953;48.810;9.204;2023-09-19T12:16:17;0.10;;;0.10;;
13764;SDS011;6953;48.810;9.204;2023-09-19T12:18:46;0.10;;;0.10;;
13764;SDS011;6953;48.810;9.204;2023-09-19T12:23:57;0.10;;;0.10;;
13764;SDS011;6953;48.810;9.204;2023-09-19T12:26:24;0.10;;;0.10;;
13764;SDS011;6953;48.810;9.204;2023-09-19T12:28:53;0.10;;;0.10;;
13764;SDS011;6953;48.810;9.204;2023-09-19T12:31:19;0.10;;;0.10;;
13764;SDS011;6953;48.810;9.204;2023-09-19T12:33:45;0.10;;;0.10;;
13764;SDS011;6953;48.810;9.204;2023-09-19T12:36:20;0.10;;;0.10;;
13764;SDS011;6953;48.810;9.204;2023-09-19T12:38:53;0.10;;;0.10;;
13764;SDS011;6953;48.810;9.204;2023-09-19T12:41:20;0.10;;;0.10;;
13764;SDS011;6953;48.810;9.204;2023-09-19T12:43:47;0.10;;;0.10;;
13764;SDS011;6953;48.810;9.204;2023-09-19T12:46:13;0.10;;;0.10;;
13764;SDS011;6953;48.810;9.204;2023-09-19T12:48:40;0.20;;;0.20;;
13764;SDS011;6953;48.810;9.204;2023-09-19T12:51:12;0.20;;;0.20;;
13764;SDS011;6953;48.810;9.204;2023-09-19T12:53:38;0.20;;;0.20;;
13764;SDS011;6953;48.810;9.204;2023-09-19T12:56:07;0.20;;;0.20;;
13764;SDS011;6953;48.810;9.204;2023-09-19T12:58:47;0.20;;;0.20;;
13764;SDS011;6953;48.810;9.204;2023-09-19T13:01:20;0.20;;;0.20;;
13764;SDS011;6953;48.810;9.204;2023-09-19T13:04:09;0.20;;;0.20;;
13764;SDS011;6953;48.810;9.204;2023-09-19T13:06:48;0.20;;;0.20;;
13764;SDS011;6953;48.810;9.204;2023-09-19T13:09:15;0.20;;;0.20;;
13764;SDS011;6953;48.810;9.204;2023-09-19T13:11:41;0.10;;;0.10;;
13764;SDS011;6953;48.810;9.204;2023-09-19T13:16:55;0.20;;;0.20;;
13764;SDS011;6953;48.810;9.204;2023-09-19T13:19:34;0.15;;;0.15;;
13764;SDS011;6953;48.810;9.204;2023-09-19T13:22:36;0.20;;;0.20;;
13764;SDS011;6953;48.810;9.204;2023-09-19T13:25:05;0.20;;;0.20;;
13764;SDS011;6953;48.810;9.204;2023-09-19T13:27:33;0.20;;;0.20;;
13764;SDS011;6953;48.810;9.204;2023-09-19T13:29:59;0.10;;;0.10;;
13764;SDS011;6953;48.810;9.204;2023-09-19T13:32:24;0.13;;;0.13;;
13764;SDS011;6953;48.810;9.204;2023-09-19T13:34:50;0.20;;;0.20;;
13764;SDS011;6953;48.810;9.204;2023-09-19T13:37:16;0.15;;;0.15;;
13764;SDS011;6953;48.810;9.204;2023-09-19T13:39:43;0.20;;;0.20;;
13764;SDS011;6953;48.810;9.204;2023-09-19T13:42:12;0.20;;;0.20;;
13764;SDS011;6953;48.810;9.204;2023-09-19T13:44:38;0.20;;;0.20;;
13764;SDS011;6953;48.810;9.204;2023-09-19T13:47:03;0.30;;;0.30;;
13764;SDS011;6953;48.810;9.204;2023-09-19T13:49:34;0.30;;;0.30;;
13764;SDS011;6953;48.810;9.204;2023-09-19T13:52:00;0.30;;;0.30;;
13764;SDS011;6953;48.810;9.204;2023-09-19T13:54:26;0.20;;;0.20;;
13764;SDS011;6953;48.810;9.204;2023-09-19T13:56:51;0.30;;;0.30;;
13764;SDS011;6953;48.810;9.204;2023-09-19T13:59:17;0.20;;;0.20;;
13764;SDS011;6953;48.810;9.204;2023-09-19T14:01:42;0.30;;;0.30;;
13764;SDS011;6953;48.810;9.204;2023-09-19T14:04:07;0.28;;;0.28;;
13764;SDS011;6953;48.810;9.204;2023-09-19T14:06:33;0.30;;;0.30;;
13764;SDS011;6953;48.810;9.204;2023-09-19T14:08:58;0.30;;;0.30;;
13764;SDS011;6953;48.810;9.204;2023-09-19T14:11:23;0.30;;;0.30;;
13764;SDS011;6953;48.810;9.204;2023-09-19T14:13:48;0.30;;;0.30;;
13764;SDS011;6953;48.810;9.204;2023-09-19T14:16:15;0.30;;;0.30;;
13764;SDS011;6953;48.810;9.204;2023-09-19T14:18:41;0.30;;;0.30;;
13764;SDS011;6953;48.810;9.204;2023-09-19T14:21:07;0.30;;;0.30;;
13764;SDS011;6953;48.810;9.204;2023-09-19T14:23:36;0.30;;;0.30;;
13764;SDS011;6953;48.810;9.204;2023-09-19T14:26:02;0.30;;;0.30;;
13764;SDS011;6953;48.810;9.204;2023-09-19T14:28:28;0.30;;;0.30;;
13764;SDS011;6953;48.810;9.204;2023-09-19T14:30:54;0.40;;;0.40;;
13764;SDS011;6953;48.810;9.204;2023-09-19T14:33:20;0.30;;;0.30;;
13764;SDS011;6953;48.810;9.204;2023-09-19T14:35:45;0.30;;;0.30;;
13764;SDS011;6953;48.810;9.204;2023-09-19T14:38:10;0.30;;;0.30;;
13764;SDS011;6953;48.810;9.204;2023-09-19T14:40:36;0.30;;;0.30;;
13764;SDS011;6953;48.810;9.204;2023-09-19T14:43:02;0.30;;;0.30;;
13764;SDS011;6953;48.810;9.204;2023-09-19T14:45:28;0.30;;;0.30;;
13764;SDS011;6953;48.810;9.204;2023-09-19T14:47:53;0.30;;;0.30;;
13764;SDS011;6953;48.810;9.204;2023-09-19T14:50:21;0.30;;;0.30;;
13764;SDS011;6953;48.810;9.204;2023-09-19T14:52:47;0.30;;;0.30;;
13764;SDS011;6953;48.810;9.204;2023-09-19T14:55:14;0.30;;;0.30;;
13764;SDS011;6953;48.810;9.204;2023-09-19T14:57:40;0.30;;;0.30;;
13764;SDS011;6953;48.810;9.204;2023-09-19T15:00:07;0.30;;;0.30;;
13764;SDS011;6953;48.810;9.204;2023-09-19T15:02:37;0.40;;;0.40;;
13764;SDS011;6953;48.810;9.204;2023-09-19T15:05:05;0.30;;;0.30;;
13764;SDS011;6953;48.810;9.204;2023-09-19T15:07:33;0.30;;;0.30;;
13764;SDS011;6953;48.810;9.204;2023-09-19T15:09:58;0.30;;;0.30;;
13764;SDS011;6953;48.810;9.204;2023-09-19T15:12:23;0.40;;;0.40;;
13764;SDS011;6953;48.810;9.204;2023-09-19T15:14:49;0.30;;;0.30;;
13764;SDS011;6953;48.810;9.204;2023-09-19T15:17:14;0.40;;;0.40;;
13764;SDS011;6953;48.810;9.204;2023-09-19T15:19:40;0.40;;;0.40;;
13764;SDS011;6953;48.810;9.204;2023-09-19T15:22:05;0.30;;;0.30;;
13764;SDS011;6953;48.810;9.204;2023-09-19T15:24:31;0.30;;;0.30;;
13764;SDS011;6953;48.810;9.204;2023-09-19T15:26:56;0.30;;;0.30;;
13764;SDS011;6953;48.810;9.204;2023-09-19T15:29:21;0.38;;;0.38;;
13764;SDS011;6953;48.810;9.204;2023-09-19T15:31:47;0.30;;;0.30;;
13764;SDS011;6953;48.810;9.204;2023-09-19T15:34:13;0.20;;;0.20;;
13764;SDS011;6953;48.810;9.204;2023-09-19T15:36:41;0.40;;;0.40;;
13764;SDS011;6953;48.810;9.204;2023-09-19T15:39:07;0.30;;;0.30;;
13764;SDS011;6953;48.810;9.204;2023-09-19T15:41:36;0.40;;;0.40;;
13764;SDS011;6953;48.810;9.204;2023-09-19T15:44:02;0.30;;;0.30;;
13764;SDS011;6953;48.810;9.204;2023-09-19T15:46:29;0.38;;;0.38;;
13764;SDS011;6953;48.810;9.204;2023-09-19T15:48:56;0.40;;;0.40;;
13764;SDS011;6953;48.810;9.204;2023-09-19T15:51:22;0.38;;;0.38;;
13764;SDS011;6953;48.810;9.204;2023-09-19T15:53:48;0.40;;;0.40;;